Terminal Aerodrome Forecast
Issued by NWS

Home | Current Version | Previous Version | Graphics & Text | Print | Product List | Glossary Off
Versions: 1 2 3 4 5 6 7 8 9 10 11 12 13 14 15 16 17 18 19 20 21 22 23 24 25 26 27 28

000
FTUS43 KDDC 231100 CCA
TAFHYS
TAF COR
KHYS 231123Z 2312/2412 04010KT P6SM SKC
      TEMPO 2312/2315 OVC011
     FM231500 08010KT P6SM SCT080
     FM231900 12011KT P6SM SCT120=

USA.gov is the U.S. government's official web portal to all federal, state and local government web resources and services.